Aeroporto :
LOGIN :

Iscrizione | Disclaimer

   EN    FR    IT 

 










Sommario :    VFR   VFR Marginale   IFR   IFR Intensivo   IFR Molto Intensivo
Visibilità : 
Base nubi : 
>= 8 km
>= 3000ft
5 / 8 km
1000 / 3000 ft
1500m / 5 km
500 / 1000 ft
800 / 1500m
200 / 500 ft
< 800m
< 200 ft
Simboli :   Temporali  Nebbia  Neve Forte  Precipitazioni Forti  Vento > 20 kt
SIGMETs :   Varie  Temporali  Ghiacco  Turbolenza  Onda orograficha  Ceneri Vulcaniche







- Altitudine del aeroporto : 375 ft
- Codice IATA : MST


EHBK - Maastricht Aachen

ULTIMO METAR :
  • 162225Z AUTO 17002KT 9999 NSC 15/13 Q1021

METARs OBSOLETI :
  • 162155Z AUTO 17002KT 9999 NSC 16/13 Q1021
  • 162125Z AUTO 19002KT 9999 NSC 17/13 Q1021
  • 162055Z AUTO 27003KT 240V310 9999 NSC 18/12 Q1021 NOSIG
  • 162025Z AUTO VRB02KT 9999 NSC 17/12 Q1021 NOSIG
  • 161955Z AUTO VRB02KT 9999 NSC 18/12 Q1021 NOSIG

TAF TAF EHBK
Valido dal 16 a 18 ore il 18 a 00 ore UTC


161651Z 1618/1724 27005KT CAVOK
Nessun NOTAM noto per questo aeroporto.



MetMap, La meteo Aeronautica in un colpo d'occhio ! - Copyright ORBIFLY Dicembre 2007 - Disclaimer

ORBIFLY MET'MAP TEAM :

Programmazione e sviluppo : Alexandra Zaïnal
Concezione e sviluppo : Baudouin d'Aumeries
Co-Programmazione e sviluppo : Marc-Olivier Méhu
Supporto tecnico e logistico : Manuel Goepfert
Aiuto per la traduzione : Arnaldo La Scala

Contatto : metmap@orbifly.com




FONTI E CREDITI :

   NOAA